Ely, United Kingdom
Current Conditions -  °F | °C
As of 5:58 AM on Saturday 20 Dec 2014 (Local Time) from EGUN Reporting Station
Broken Clouds Broken Clouds  
Wind Chill: 36°   Ceiling: 4700
Heat Index: 43°   Visibility: 6mi
Dew Point: 37°   Wind: 15mph
Humidity: 78%   Direction: 250°WSW
Pressure: 30.13"   Gusts: 24mph
Location:  52.4°N, 0.26°E
Report Text: EGUN 200558Z AUTO 25013G21KT 9999 BKN047 06/03 A3013 RMK AO2 SLP207 T00610026 10061 20047 50002 $
Loading
Personal Weather Stations






























Interactive Weather Map New forecast layout! Learn more

10-Day Weather Forecast

Advertisements
Track Severe Weather on mobile